createdAt,value
2022-07-25T00:01:13.413Z,96.32
2022-07-25T00:03:40.969Z,97.09
2022-07-25T00:06:12.784Z,97.35
2022-07-25T00:08:44.270Z,97.53
2022-07-25T00:11:10.972Z,96.88
2022-07-25T00:13:37.678Z,96.02
2022-07-25T00:16:04.466Z,96.00
2022-07-25T00:18:31.249Z,95.93
2022-07-25T00:20:57.717Z,94.90
2022-07-25T00:23:24.130Z,94.39
2022-07-25T00:25:50.623Z,94.74
2022-07-25T00:28:17.473Z,95.15
2022-07-25T00:30:44.081Z,96.74
2022-07-25T00:33:10.964Z,96.54
2022-07-25T00:35:37.469Z,97.84
2022-07-25T00:38:04.393Z,98.37
2022-07-25T00:40:30.983Z,99.64
2022-07-25T00:42:57.391Z,98.96
2022-07-25T00:45:24.135Z,98.78
2022-07-25T00:47:51.516Z,98.75
2022-07-25T00:50:18.146Z,98.04
2022-07-25T00:52:45.670Z,97.13
2022-07-25T00:55:13.457Z,96.43
2022-07-25T00:57:39.875Z,95.98
2022-07-25T01:00:08.964Z,95.65
2022-07-25T01:02:35.743Z,95.20
2022-07-25T01:05:04.102Z,94.83
2022-07-25T01:07:31.298Z,94.56
2022-07-25T01:09:59.710Z,94.28
2022-07-25T01:12:26.333Z,93.48
2022-07-25T01:14:52.949Z,93.62
2022-07-25T01:17:19.430Z,94.07
2022-07-25T01:19:46.050Z,95.79
2022-07-25T01:22:12.687Z,97.39
2022-07-25T01:24:39.975Z,98.35
2022-07-25T01:27:06.581Z,99.74
2022-07-25T01:29:33.004Z,100.00
2022-07-25T01:32:02.807Z,100.00
2022-07-25T01:34:29.309Z,99.44
2022-07-25T01:36:55.985Z,99.62
2022-07-25T01:39:22.431Z,100.00
2022-07-25T01:41:48.879Z,100.00
2022-07-25T01:44:15.283Z,100.00
2022-07-25T01:46:41.797Z,100.00
2022-07-25T01:49:08.454Z,100.00
2022-07-25T01:51:34.922Z,100.00
2022-07-25T01:54:01.813Z,100.00
2022-07-25T01:56:31.798Z,100.00
2022-07-25T01:58:59.324Z,100.00
2022-07-25T02:01:25.890Z,100.00
2022-07-25T02:03:52.574Z,100.00
2022-07-25T02:06:19.380Z,100.00
2022-07-25T02:08:45.896Z,100.00
2022-07-25T02:11:12.632Z,100.00
2022-07-25T02:13:39.983Z,100.00
2022-07-25T02:16:06.608Z,100.00
2022-07-25T02:18:33.249Z,100.00
2022-07-25T02:20:59.863Z,100.00
2022-07-25T02:23:26.426Z,100.00
2022-07-25T02:25:53.075Z,100.00
2022-07-25T02:28:19.547Z,100.00
2022-07-25T02:30:46.028Z,100.00
2022-07-25T02:33:12.841Z,100.00
2022-07-25T02:35:39.587Z,100.00
2022-07-25T02:38:06.222Z,100.00
2022-07-25T02:40:32.930Z,100.00
2022-07-25T02:42:59.511Z,100.00
2022-07-25T02:45:26.032Z,100.00
2022-07-25T02:47:53.060Z,100.00
2022-07-25T02:50:19.635Z,100.00
2022-07-25T02:52:46.045Z,100.00
2022-07-25T02:55:12.707Z,100.00
2022-07-25T02:57:39.613Z,100.00
2022-07-25T03:00:07.178Z,100.00
2022-07-25T03:02:34.237Z,100.00
2022-07-25T03:05:00.786Z,100.00
2022-07-25T03:07:27.366Z,100.00
2022-07-25T03:09:53.850Z,100.00
2022-07-25T03:12:20.380Z,100.00
2022-07-25T03:14:46.813Z,100.00
2022-07-25T03:17:13.646Z,100.00
2022-07-25T03:19:40.082Z,100.00
2022-07-25T03:22:06.612Z,100.00
2022-07-25T03:24:33.239Z,100.00
2022-07-25T03:26:59.984Z,100.00
2022-07-25T03:29:26.446Z,100.00
2022-07-25T03:31:53.110Z,100.00
2022-07-25T03:34:19.591Z,100.00
2022-07-25T03:36:46.026Z,100.00
2022-07-25T03:39:12.602Z,100.00
2022-07-25T03:41:39.103Z,100.00
2022-07-25T03:44:06.026Z,100.00
2022-07-25T03:46:32.767Z,100.00
2022-07-25T03:48:59.317Z,100.00
2022-07-25T03:51:26.961Z,100.00
2022-07-25T03:53:53.414Z,100.00
2022-07-25T03:56:20.091Z,100.00
2022-07-25T03:58:46.603Z,100.00
2022-07-25T04:01:13.094Z,100.00
2022-07-25T04:03:39.616Z,100.00
2022-07-25T04:06:07.432Z,100.00
2022-07-25T04:08:33.985Z,100.00
2022-07-25T04:11:00.580Z,100.00
2022-07-25T04:13:27.280Z,100.00
2022-07-25T04:15:53.785Z,100.00
2022-07-25T04:18:22.308Z,100.00
2022-07-25T04:20:55.463Z,100.00
2022-07-25T04:23:22.117Z,100.00
2022-07-25T04:25:48.682Z,100.00
2022-07-25T04:28:15.060Z,100.00
2022-07-25T04:30:41.449Z,100.00
2022-07-25T04:33:07.811Z,100.00
2022-07-25T04:35:35.083Z,100.00
2022-07-25T04:38:01.428Z,100.00
2022-07-25T04:40:27.921Z,100.00
2022-07-25T04:42:54.471Z,100.00
2022-07-25T04:45:21.026Z,100.00
2022-07-25T04:47:47.577Z,100.00
2022-07-25T04:50:14.274Z,100.00
2022-07-25T04:52:40.986Z,100.00
2022-07-25T04:55:07.990Z,99.79
2022-07-25T04:57:34.745Z,97.95
2022-07-25T05:00:01.133Z,95.07
2022-07-25T05:02:27.665Z,87.63
2022-07-25T05:04:54.361Z,77.05
2022-07-25T05:07:20.751Z,71.95
2022-07-25T05:09:47.098Z,65.50
2022-07-25T05:12:13.625Z,62.34
2022-07-25T05:14:40.084Z,57.38
2022-07-25T05:17:06.809Z,60.63
2022-07-25T05:19:33.259Z,59.39
2022-07-25T05:21:59.585Z,63.06
2022-07-25T05:24:26.668Z,63.14
2022-07-25T05:26:53.057Z,67.15
2022-07-25T05:29:19.552Z,66.10
2022-07-25T05:31:46.145Z,67.42
2022-07-25T05:34:12.590Z,64.06
2022-07-25T05:36:40.524Z,61.38
2022-07-25T05:39:09.505Z,66.76
2022-07-25T05:41:35.963Z,71.79
2022-07-25T05:44:02.891Z,75.89
2022-07-25T05:46:29.897Z,78.03
2022-07-25T05:48:56.504Z,79.39
2022-07-25T05:51:27.505Z,80.09
2022-07-25T05:53:55.793Z,83.36
2022-07-25T05:56:22.613Z,84.90
2022-07-25T05:58:50.422Z,86.31
2022-07-25T06:01:18.260Z,84.70
2022-07-25T06:03:44.733Z,84.39
2022-07-25T06:06:11.175Z,83.11
2022-07-25T06:08:39.033Z,82.26
2022-07-25T06:11:06.787Z,81.63
2022-07-25T06:13:35.186Z,80.94
2022-07-25T06:16:02.091Z,78.94
2022-07-25T06:18:29.070Z,76.85
2022-07-25T06:20:55.825Z,78.10
2022-07-25T06:23:22.335Z,78.25
2022-07-25T06:25:54.084Z,77.35
2022-07-25T06:28:20.461Z,76.31
2022-07-25T06:30:48.138Z,75.02
2022-07-25T06:33:14.691Z,73.92
2022-07-25T06:35:41.304Z,73.99
2022-07-25T06:38:07.712Z,73.76
2022-07-25T06:40:34.784Z,72.50
2022-07-25T06:43:01.379Z,70.82
2022-07-25T06:45:27.966Z,71.58
2022-07-25T06:47:54.462Z,71.54
2022-07-25T06:50:21.354Z,70.34
2022-07-25T06:52:48.795Z,68.76
2022-07-25T06:55:15.590Z,69.55
2022-07-25T06:58:02.132Z,68.55
2022-07-25T07:00:28.905Z,67.44
2022-07-25T07:02:58.312Z,67.07
2022-07-25T07:05:26.493Z,67.38
2022-07-25T07:07:53.091Z,66.55
2022-07-25T07:10:19.958Z,64.84
2022-07-25T07:12:46.543Z,64.36
2022-07-25T07:15:13.784Z,64.29
2022-07-25T07:17:40.690Z,63.94
2022-07-25T07:20:08.215Z,63.11
2022-07-25T07:22:48.609Z,60.01
2022-07-25T07:25:16.619Z,60.70
2022-07-25T07:27:47.455Z,59.79
2022-07-25T07:30:14.474Z,59.66
2022-07-25T07:32:41.997Z,59.60
2022-07-25T07:35:09.423Z,58.68
2022-07-25T07:37:41.428Z,59.55
2022-07-25T07:40:17.477Z,57.99
2022-07-25T07:42:46.989Z,56.34
2022-07-25T07:45:15.710Z,56.05
2022-07-25T07:47:42.618Z,55.36
2022-07-25T07:50:10.327Z,54.77
2022-07-25T07:52:37.345Z,54.02
2022-07-25T07:55:04.447Z,53.01
2022-07-25T07:57:30.964Z,52.28
2022-07-25T07:59:57.745Z,52.24
2022-07-25T08:02:24.214Z,51.79
2022-07-25T08:04:52.302Z,52.77
2022-07-25T08:07:21.094Z,52.39
2022-07-25T08:09:48.117Z,50.70
2022-07-25T08:12:14.903Z,51.17
2022-07-25T08:14:43.050Z,49.09
2022-07-25T08:17:09.819Z,48.76
2022-07-25T08:19:39.640Z,48.59
2022-07-25T08:22:06.276Z,48.43
2022-07-25T08:24:32.876Z,49.00
2022-07-25T08:26:59.428Z,49.13
2022-07-25T08:29:28.234Z,48.60
2022-07-25T08:31:55.080Z,48.32
2022-07-25T08:34:22.819Z,47.32
2022-07-25T08:36:50.951Z,46.36
2022-07-25T08:39:17.539Z,45.85
2022-07-25T08:41:45.621Z,45.47
2022-07-25T08:44:15.337Z,45.31
2022-07-25T08:46:42.968Z,45.65
2022-07-25T08:49:10.215Z,45.23
2022-07-25T08:51:37.376Z,45.72
2022-07-25T08:54:06.140Z,45.40
2022-07-25T08:56:33.985Z,44.13
2022-07-25T08:59:00.513Z,43.24
2022-07-25T09:01:31.513Z,43.42
2022-07-25T09:04:01.825Z,43.32
2022-07-25T09:06:28.250Z,42.62
2022-07-25T09:08:57.448Z,42.62
2022-07-25T09:11:27.789Z,41.55
2022-07-25T09:13:59.483Z,42.10
2022-07-25T09:16:32.899Z,40.88
2022-07-25T09:19:13.504Z,41.63
2022-07-25T09:21:41.294Z,39.97
2022-07-25T09:24:19.027Z,39.36
2022-07-25T09:26:51.618Z,40.20
2022-07-25T09:29:29.430Z,38.90
2022-07-25T09:31:57.375Z,38.71
2022-07-25T09:34:39.971Z,38.69
2022-07-25T09:37:09.270Z,38.59
2022-07-25T09:39:43.470Z,38.26
2022-07-25T09:42:20.853Z,37.33
2022-07-25T09:45:29.679Z,37.84
2022-07-25T09:48:04.028Z,36.58
2022-07-25T09:50:32.871Z,36.38
2022-07-25T09:53:02.278Z,36.60
2022-07-25T09:55:30.359Z,35.14
2022-07-25T09:57:57.677Z,35.69
2022-07-25T10:00:29.080Z,34.22
2022-07-25T10:02:55.741Z,34.80
2022-07-25T10:05:43.622Z,34.85
2022-07-25T10:08:11.733Z,33.75
2022-07-25T10:10:40.264Z,33.66
2022-07-25T10:13:10.695Z,33.90
2022-07-25T10:15:49.122Z,32.15
2022-07-25T10:18:17.650Z,30.20
2022-07-25T10:20:45.151Z,30.40
2022-07-25T10:23:28.074Z,30.50
2022-07-25T10:26:22.381Z,29.31
2022-07-25T10:28:51.125Z,30.20
2022-07-25T10:31:36.736Z,28.82
2022-07-25T10:34:08.802Z,28.98
2022-07-25T10:36:48.255Z,29.46
2022-07-25T10:39:17.185Z,28.85
2022-07-25T10:41:55.417Z,28.98
2022-07-25T10:44:22.336Z,29.29
2022-07-25T10:46:48.856Z,28.45
2022-07-25T10:49:30.987Z,28.52
2022-07-25T10:52:01.218Z,28.06
2022-07-25T10:54:36.493Z,28.00
2022-07-25T10:57:05.110Z,27.93
2022-07-25T10:59:38.306Z,28.41
2022-07-25T11:02:07.747Z,28.05
2022-07-25T11:04:34.998Z,27.60
2022-07-25T11:07:13.438Z,28.68
2022-07-25T11:09:42.153Z,28.28
2022-07-25T11:12:09.164Z,28.87
2022-07-25T11:14:40.771Z,28.46
2022-07-25T11:17:18.847Z,28.24
2022-07-25T11:20:09.818Z,26.74
2022-07-25T11:22:36.857Z,27.23
2022-07-25T11:25:12.539Z,26.96
2022-07-25T11:27:39.021Z,27.44
2022-07-25T11:30:17.373Z,27.84
2022-07-25T11:32:46.851Z,28.07
2022-07-25T11:35:14.567Z,29.00
2022-07-25T11:37:44.401Z,27.96
2022-07-25T11:40:11.065Z,27.54
2022-07-25T11:42:58.092Z,28.17
2022-07-25T11:45:27.739Z,27.90
2022-07-25T11:48:10.835Z,28.10
2022-07-25T11:50:40.875Z,28.08
2022-07-25T11:53:09.632Z,29.40
2022-07-25T11:55:39.628Z,29.02
2022-07-25T11:58:06.750Z,28.96
2022-07-25T12:00:41.679Z,28.64
2022-07-25T12:03:20.630Z,28.87
2022-07-25T12:05:48.927Z,27.88
2022-07-25T12:08:24.393Z,27.25
2022-07-25T12:10:51.346Z,26.56
2022-07-25T12:13:26.402Z,25.89
2022-07-25T12:15:52.959Z,25.45
2022-07-25T12:18:21.355Z,24.37
2022-07-25T12:20:47.827Z,22.86
2022-07-25T12:23:14.435Z,22.15
2022-07-25T12:25:43.656Z,22.41
2022-07-25T12:28:10.677Z,22.17
2022-07-25T12:30:38.428Z,21.85
2022-07-25T12:33:06.004Z,22.66
2022-07-25T12:35:33.038Z,20.89
2022-07-25T12:37:59.787Z,21.47
2022-07-25T12:40:26.437Z,21.31
2022-07-25T12:42:52.965Z,21.14
2022-07-25T12:45:19.448Z,21.39
2022-07-25T12:47:47.837Z,22.03
2022-07-25T12:50:16.219Z,21.15
2022-07-25T12:52:43.578Z,20.53
2022-07-25T12:55:12.697Z,20.56
2022-07-25T12:57:39.910Z,22.14
2022-07-25T13:00:10.233Z,22.77
2022-07-25T13:02:38.462Z,22.82
2022-07-25T13:05:06.002Z,21.92
2022-07-25T13:07:33.741Z,23.25
2022-07-25T13:10:01.062Z,24.03
2022-07-25T13:12:27.792Z,24.23
2022-07-25T13:14:54.571Z,25.55
2022-07-25T13:17:26.550Z,26.35
2022-07-25T13:19:54.315Z,26.26
2022-07-25T13:22:20.682Z,26.76
2022-07-25T13:24:47.310Z,26.85
2022-07-25T13:27:13.960Z,26.32
2022-07-25T13:29:40.555Z,26.83
2022-07-25T13:32:07.409Z,27.10
2022-07-25T13:34:33.986Z,27.48
2022-07-25T13:37:00.631Z,27.46
2022-07-25T13:39:27.251Z,27.39
2022-07-25T13:41:53.816Z,26.35
2022-07-25T13:44:20.323Z,26.69
2022-07-25T13:46:47.061Z,26.53
2022-07-25T13:49:13.631Z,26.68
2022-07-25T13:51:40.713Z,26.59
2022-07-25T13:54:07.298Z,26.81
2022-07-25T13:56:34.186Z,26.64
2022-07-25T13:59:02.962Z,27.24
2022-07-25T14:01:30.108Z,27.89
2022-07-25T14:03:57.001Z,28.04
2022-07-25T14:06:23.658Z,28.33
2022-07-25T14:08:50.440Z,28.17
2022-07-25T14:11:17.146Z,27.95
2022-07-25T14:13:43.940Z,27.63
2022-07-25T14:16:10.776Z,27.53
2022-07-25T14:18:37.182Z,28.14
2022-07-25T14:21:04.145Z,27.96
2022-07-25T14:23:30.882Z,28.09
2022-07-25T14:25:58.994Z,27.70
2022-07-25T14:28:26.104Z,27.75
2022-07-25T14:30:52.612Z,27.83
2022-07-25T14:33:19.345Z,29.66
2022-07-25T14:35:45.841Z,30.16
2022-07-25T14:38:12.640Z,30.83
2022-07-25T14:40:41.387Z,33.76
2022-07-25T14:43:07.849Z,38.68
2022-07-25T14:45:34.846Z,39.35
2022-07-25T14:48:01.399Z,40.75
2022-07-25T14:50:27.999Z,39.45
2022-07-25T14:52:54.611Z,36.75
2022-07-25T14:55:21.296Z,36.12
2022-07-25T14:57:48.038Z,37.24
2022-07-25T15:00:15.350Z,39.64
2022-07-25T15:02:42.494Z,35.29
2022-07-25T15:05:09.764Z,34.30
2022-07-25T15:07:37.804Z,34.05
2022-07-25T15:10:05.060Z,35.15
2022-07-25T15:12:31.882Z,36.09
2022-07-25T15:14:58.276Z,35.46
2022-07-25T15:17:24.926Z,37.16
2022-07-25T15:19:51.372Z,35.54
2022-07-25T15:22:18.133Z,36.58
2022-07-25T15:25:17.944Z,35.63
2022-07-25T15:27:31.844Z,35.55
2022-07-25T15:29:58.502Z,35.60
2022-07-25T15:32:25.172Z,34.72
2022-07-25T15:34:51.879Z,34.47
2022-07-25T15:37:18.472Z,33.82
2022-07-25T15:39:45.189Z,34.56
2022-07-25T15:42:13.007Z,35.08
2022-07-25T15:44:39.471Z,35.00
2022-07-25T15:47:07.044Z,34.64
2022-07-25T15:49:33.748Z,32.69
2022-07-25T15:52:00.653Z,31.21
2022-07-25T15:54:29.551Z,31.08
2022-07-25T15:56:56.356Z,30.15
2022-07-25T15:59:22.989Z,31.43
2022-07-25T16:01:49.667Z,32.96
2022-07-25T16:04:16.340Z,34.74
2022-07-25T16:06:43.048Z,34.75
2022-07-25T16:09:10.108Z,34.54
2022-07-25T16:11:37.047Z,35.53
2022-07-25T16:14:03.482Z,35.54
2022-07-25T16:16:30.066Z,35.40
2022-07-25T16:18:57.573Z,35.54
2022-07-25T16:21:24.221Z,35.45
2022-07-25T16:23:50.636Z,35.75
2022-07-25T16:26:17.131Z,35.92
2022-07-25T16:28:43.924Z,36.85
2022-07-25T16:31:10.475Z,37.03
2022-07-25T16:33:37.115Z,37.14
2022-07-25T16:36:03.823Z,37.36
2022-07-25T16:38:30.563Z,38.08
2022-07-25T16:40:57.107Z,37.92
2022-07-25T16:43:23.768Z,38.21
2022-07-25T16:45:50.565Z,38.43
2022-07-25T16:48:17.225Z,37.81
2022-07-25T16:50:43.610Z,38.01
2022-07-25T16:53:10.007Z,38.23
2022-07-25T16:55:36.525Z,38.33
2022-07-25T16:58:03.099Z,38.14
2022-07-25T17:00:31.278Z,38.84
2022-07-25T17:02:57.983Z,38.90
2022-07-25T17:05:24.515Z,38.72
2022-07-25T17:07:57.011Z,38.61
2022-07-25T17:10:25.918Z,39.00
2022-07-25T17:12:52.401Z,38.43
2022-07-25T17:15:19.312Z,38.60
2022-07-25T17:17:45.875Z,38.59
2022-07-25T17:20:12.508Z,38.38
2022-07-25T17:22:39.072Z,38.10
2022-07-25T17:25:06.225Z,36.72
2022-07-25T17:27:32.748Z,36.93
2022-07-25T17:29:59.189Z,36.46
2022-07-25T17:32:29.661Z,35.51
2022-07-25T17:34:57.174Z,35.80
2022-07-25T17:37:23.696Z,35.16
2022-07-25T17:39:50.316Z,35.94
2022-07-25T17:42:16.703Z,35.96
2022-07-25T17:44:43.051Z,35.67
2022-07-25T17:47:09.545Z,35.67
2022-07-25T17:49:35.954Z,34.99
2022-07-25T17:52:02.437Z,34.97
2022-07-25T17:54:28.922Z,35.02
2022-07-25T17:56:55.591Z,34.55
2022-07-25T17:59:22.013Z,34.07
2022-07-25T18:01:48.491Z,34.77
2022-07-25T18:04:15.051Z,34.26
2022-07-25T18:06:41.581Z,33.88
2022-07-25T18:09:08.583Z,34.17
2022-07-25T18:11:35.058Z,34.16
2022-07-25T18:14:01.476Z,34.58
2022-07-25T18:16:28.198Z,34.76
2022-07-25T18:18:54.964Z,35.37
2022-07-25T18:21:21.527Z,36.03
2022-07-25T18:23:48.028Z,36.80
2022-07-25T18:26:15.229Z,36.52
2022-07-25T18:28:41.892Z,36.73
2022-07-25T18:31:08.452Z,36.90
2022-07-25T18:33:35.194Z,37.37
2022-07-25T18:36:05.586Z,37.68
2022-07-25T18:38:34.491Z,38.14
2022-07-25T18:41:26.284Z,37.96
2022-07-25T18:43:48.737Z,38.59
2022-07-25T18:46:15.431Z,38.94
2022-07-25T18:48:43.590Z,39.36
2022-07-25T18:51:10.430Z,39.66
2022-07-25T18:53:37.685Z,39.38
2022-07-25T18:56:05.132Z,39.66
2022-07-25T18:58:32.166Z,39.98
2022-07-25T19:00:58.704Z,40.05
2022-07-25T19:03:25.229Z,39.83
2022-07-25T19:05:51.944Z,39.72
2022-07-25T19:08:18.701Z,40.01
2022-07-25T19:10:45.192Z,40.19
2022-07-25T19:13:26.756Z,40.49
2022-07-25T19:16:02.151Z,40.13
2022-07-25T19:18:29.585Z,40.08
2022-07-25T19:20:56.191Z,39.72
2022-07-25T19:23:22.643Z,39.42
2022-07-25T19:25:49.190Z,39.44
2022-07-25T19:28:15.871Z,39.37
2022-07-25T19:30:42.485Z,39.18
2022-07-25T19:33:11.230Z,39.31
2022-07-25T19:35:37.886Z,39.02
2022-07-25T19:38:05.234Z,38.70
2022-07-25T19:40:32.870Z,38.71
2022-07-25T19:43:01.374Z,38.63
2022-07-25T19:45:28.979Z,38.26
2022-07-25T19:47:55.590Z,38.26
2022-07-25T19:50:22.093Z,38.76
2022-07-25T19:52:48.531Z,38.78
2022-07-25T19:55:15.141Z,39.04
2022-07-25T19:57:41.614Z,39.01
2022-07-25T20:00:08.831Z,39.17
2022-07-25T20:02:35.525Z,39.54
2022-07-25T20:05:02.786Z,40.03
2022-07-25T20:07:29.351Z,40.20
2022-07-25T20:09:58.305Z,40.13
2022-07-25T20:12:24.880Z,40.82
2022-07-25T20:14:51.879Z,40.60
2022-07-25T20:17:18.710Z,40.84
2022-07-25T20:19:45.282Z,40.80
2022-07-25T20:22:12.135Z,41.08
2022-07-25T20:24:38.652Z,41.34
2022-07-25T20:27:05.406Z,41.77
2022-07-25T20:29:31.916Z,41.58
2022-07-25T20:31:59.354Z,41.88
2022-07-25T20:34:25.872Z,42.35
2022-07-25T20:36:52.418Z,41.91
2022-07-25T20:39:18.925Z,42.29
2022-07-25T20:41:45.644Z,42.49
2022-07-25T20:44:12.306Z,42.52
2022-07-25T20:46:39.514Z,42.80
2022-07-25T20:49:07.272Z,43.29
2022-07-25T20:51:36.540Z,43.08
2022-07-25T20:54:04.350Z,42.96
2022-07-25T20:56:30.777Z,43.29
2022-07-25T20:58:57.487Z,43.43
2022-07-25T21:01:24.605Z,43.06
2022-07-25T21:03:51.340Z,43.29
2022-07-25T21:06:18.194Z,43.17
2022-07-25T21:08:44.743Z,43.19
2022-07-25T21:11:11.522Z,43.41
2022-07-25T21:13:37.944Z,43.22
2022-07-25T21:16:04.657Z,43.27
2022-07-25T21:18:31.259Z,43.43
2022-07-25T21:20:57.762Z,43.37
2022-07-25T21:23:24.386Z,43.40
2022-07-25T21:25:50.885Z,43.27
2022-07-25T21:28:17.789Z,43.68
2022-07-25T21:30:44.437Z,44.24
2022-07-25T21:33:14.371Z,43.99
2022-07-25T21:35:52.875Z,44.33
2022-07-25T21:38:26.681Z,44.26
2022-07-25T21:40:56.946Z,44.49
2022-07-25T21:43:24.259Z,44.83
2022-07-25T21:45:51.215Z,45.33
2022-07-25T21:48:20.885Z,44.81
2022-07-25T21:50:48.762Z,44.84
2022-07-25T21:53:16.838Z,45.08
2022-07-25T21:55:43.318Z,45.08
2022-07-25T21:58:09.933Z,45.20
2022-07-25T22:00:41.395Z,45.52
2022-07-25T22:03:11.952Z,45.80
2022-07-25T22:05:38.510Z,45.91
2022-07-25T22:08:05.259Z,46.55
2022-07-25T22:10:31.881Z,47.91
2022-07-25T22:12:58.520Z,49.16
2022-07-25T22:15:25.052Z,49.80
2022-07-25T22:17:51.808Z,50.13
2022-07-25T22:20:19.548Z,50.21
2022-07-25T22:22:47.522Z,50.43
2022-07-25T22:25:14.612Z,50.35
2022-07-25T22:27:41.222Z,50.82
2022-07-25T22:30:08.465Z,51.21
2022-07-25T22:32:34.863Z,51.57
2022-07-25T22:35:01.574Z,51.65
2022-07-25T22:37:32.659Z,52.32
2022-07-25T22:40:01.346Z,52.09
2022-07-25T22:42:28.224Z,52.38
2022-07-25T22:44:54.742Z,52.17
2022-07-25T22:47:21.337Z,51.59
2022-07-25T22:49:47.943Z,51.33
2022-07-25T22:52:14.675Z,51.28
2022-07-25T22:54:41.467Z,52.17
2022-07-25T22:57:08.166Z,53.17
2022-07-25T22:59:34.582Z,53.31
2022-07-25T23:02:01.205Z,53.64
2022-07-25T23:04:27.886Z,53.35
2022-07-25T23:06:54.414Z,53.41
2022-07-25T23:09:20.932Z,53.68
2022-07-25T23:11:47.727Z,53.88
2022-07-25T23:14:14.255Z,54.51
2022-07-25T23:16:41.326Z,54.69
2022-07-25T23:19:08.371Z,55.67
2022-07-25T23:21:35.148Z,55.55
2022-07-25T23:24:01.889Z,55.88
2022-07-25T23:26:28.517Z,56.46
2022-07-25T23:28:55.298Z,56.14
2022-07-25T23:31:21.954Z,56.66
2022-07-25T23:33:48.514Z,57.00
2022-07-25T23:36:15.130Z,56.96
2022-07-25T23:38:41.781Z,56.94
2022-07-25T23:41:08.355Z,56.44
2022-07-25T23:43:56.497Z,52.61
2022-07-25T23:46:27.566Z,52.66
2022-07-25T23:48:54.942Z,51.22
2022-07-25T23:51:21.552Z,54.15
2022-07-25T23:53:48.306Z,55.55
2022-07-25T23:56:18.768Z,55.89
2022-07-25T23:58:47.671Z,56.44
